Hornblower Hybrid — WDE6422 — position and weather

sailwx.info

Track history (hours):
 
Tides and Currents Weather Stations Pressure Air Temp Water Temp Dewpoint Dewpoint Depression Visibility Wind Speed Wind Dir Waves Ship Positions

Hornblower Hybrid

Owner: Hornblower Hybrid LLC, San Francisco, CA. More information available from US FCC via Universal Licensing System and Coast Guard Vessel Documentation Center.

Last reported at 2017-Nov-12 21:39 UTC. Time now 2017-Dec-17 04:15 UTC.
Position N 37°48' W 122°24'.
Warning: this ship's position is 34 days out of date.

Length 20 m; draft 2 m.

Type: Ship. MMSI: 367380120.

Date/timePositionNaut miles runAvg speedWind from/ knotsBaromVisibWave heightAir tempDewpointWater temp
2017-Nov-12 21:39N 37°48' W 122°24'0 0.3
2017-Nov-12 21:30N 37°48' W 122°24'1 2.0
2017-Nov-12 21:00N 37°49' W 122°24'4 7.4
2017-Nov-12 20:30N 37°47' W 122°21'3 5.9
2017-Nov-12 20:01N 37°44' W 122°21'1 1.4
2017-Nov-12 19:30N 37°44' W 122°22'2 4.8
2017-Nov-12 19:00N 37°46' W 122°23'2 4.4
2017-Nov-12 18:30N 37°48' W 122°24'0 0.9
2017-Nov-12 18:00N 37°48' W 122°24'0 0.0
2017-Nov-12 17:29N 37°48' W 122°24'0 0.0
2017-Nov-12 16:59N 37°48' W 122°24'  
2017-Nov-05 21:45N 37°48' W 122°24'0 0.0
2017-Nov-05 21:30N 37°48' W 122°24'1 2.0
2017-Nov-05 21:00N 37°49' W 122°25'2 3.3
2017-Nov-05 20:30N 37°50' W 122°27'1 1.5
2017-Nov-05 20:00N 37°49' W 122°27'2 4.3
2017-Nov-05 19:30N 37°48' W 122°24'0 0.0
2017-Nov-05 19:00N 37°48' W 122°24'0 0.0
2017-Nov-05 18:30N 37°48' W 122°24'0 0.0
2017-Nov-05 18:00N 37°48' W 122°24'0 0.0
2017-Nov-05 17:30N 37°48' W 122°24'0 0.0
2017-Nov-05 17:00N 37°48' W 122°24'0 0.0
2017-Nov-05 16:30N 37°48' W 122°24'0 0.0
2017-Nov-05 03:42N 37°48' W 122°24'0 0.0
2017-Nov-05 03:30N 37°48' W 122°24'0 0.0
2017-Nov-05 03:00N 37°48' W 122°24'1 2.9
2017-Nov-05 02:30N 37°50' W 122°25'0 0.5
2017-Nov-05 02:00N 37°49' W 122°25'2 3.9
2017-Nov-05 01:30N 37°48' W 122°23'1 1.6
2017-Nov-05 01:00N 37°48' W 122°24'0 0.0
2017-Nov-05 00:30N 37°48' W 122°24'0 0.0
2017-Nov-05 00:00N 37°48' W 122°24'0 0.0
2017-Nov-04 23:30N 37°48' W 122°24'0 0.0
2017-Nov-04 23:00N 37°48' W 122°24'0 0.0
2017-Nov-04 22:30N 37°48' W 122°24'  
Track history (hours):
 
Tides and Currents Weather Stations Pressure Air Temp Water Temp Dewpoint Dewpoint Depression Visibility Wind Speed Wind Dir Waves Ship Positions

Hornblower Hybrid

Owner: Hornblower Hybrid LLC, San Francisco, CA. More information available from US FCC via Universal Licensing System and Coast Guard Vessel Documentation Center.

Last reported at 2017-Nov-12 21:39 UTC. Time now 2017-Dec-17 04:15 UTC.
Position N 37°48' W 122°24'.
Warning: this ship's position is 34 days out of date.

Length 20 m; draft 2 m.

Type: Ship. MMSI: 367380120.

Date/timePositionNaut miles runAvg speedWind from/ knotsBaromVisibWave heightAir tempDewpointWater temp
2017-Nov-12 21:39N 37°48' W 122°24'0 0.3
2017-Nov-12 21:30N 37°48' W 122°24'1 2.0
2017-Nov-12 21:00N 37°49' W 122°24'4 7.4
2017-Nov-12 20:30N 37°47' W 122°21'3 5.9
2017-Nov-12 20:01N 37°44' W 122°21'1 1.4
2017-Nov-12 19:30N 37°44' W 122°22'2 4.8
2017-Nov-12 19:00N 37°46' W 122°23'2 4.4
2017-Nov-12 18:30N 37°48' W 122°24'0 0.9
2017-Nov-12 18:00N 37°48' W 122°24'0 0.0
2017-Nov-12 17:29N 37°48' W 122°24'0 0.0
2017-Nov-12 16:59N 37°48' W 122°24'  
2017-Nov-05 21:45N 37°48' W 122°24'0 0.0
2017-Nov-05 21:30N 37°48' W 122°24'1 2.0
2017-Nov-05 21:00N 37°49' W 122°25'2 3.3
2017-Nov-05 20:30N 37°50' W 122°27'1 1.5
2017-Nov-05 20:00N 37°49' W 122°27'2 4.3
2017-Nov-05 19:30N 37°48' W 122°24'0 0.0
2017-Nov-05 19:00N 37°48' W 122°24'0 0.0
2017-Nov-05 18:30N 37°48' W 122°24'0 0.0
2017-Nov-05 18:00N 37°48' W 122°24'0 0.0
2017-Nov-05 17:30N 37°48' W 122°24'0 0.0
2017-Nov-05 17:00N 37°48' W 122°24'0 0.0
2017-Nov-05 16:30N 37°48' W 122°24'0 0.0
2017-Nov-05 03:42N 37°48' W 122°24'0 0.0
2017-Nov-05 03:30N 37°48' W 122°24'0 0.0
2017-Nov-05 03:00N 37°48' W 122°24'1 2.9
2017-Nov-05 02:30N 37°50' W 122°25'0 0.5
2017-Nov-05 02:00N 37°49' W 122°25'2 3.9
2017-Nov-05 01:30N 37°48' W 122°23'1 1.6
2017-Nov-05 01:00N 37°48' W 122°24'0 0.0
2017-Nov-05 00:30N 37°48' W 122°24'0 0.0
2017-Nov-05 00:00N 37°48' W 122°24'0 0.0
2017-Nov-04 23:30N 37°48' W 122°24'0 0.0
2017-Nov-04 23:00N 37°48' W 122°24'0 0.0
2017-Nov-04 22:30N 37°48' W 122°24'  

Dump ship's entire track history